Time;durP1;ratioP1;P1;durP2;ratioP2;P2;SDS_P1;SDS_P2;PMS_P1;PMS_P2;Temp;Humidity;BMP_temperature;BMP_pressure;BME280_temperature;BME280_humidity;BME280_pressure;Samples;Min_cycle;Max_cycle;Signal;HPM_P1;HPM_P2
2023/03/05 00:00:08;;;;;;;4.25;1.25;;;;;11.50;102067.00;;;;5039208;28;20223;-75
2023/03/05 00:02:35;;;;;;;6.05;1.13;;;;;11.50;102064.00;;;;5047879;28;20557;-75
2023/03/05 00:05:03;;;;;;;5.05;1.00;;;;;11.50;102064.00;;;;5045733;28;20211;-75
2023/03/05 00:07:30;;;;;;;5.90;1.13;;;;;11.50;102061.00;;;;5048748;28;20585;-75
2023/03/05 00:09:59;;;;;;;5.43;1.05;;;;;11.50;102059.00;;;;5048746;28;20211;-75
2023/03/05 00:12:29;;;;;;;4.80;0.95;;;;;11.50;102056.00;;;;5047504;28;20195;-75
2023/03/05 00:14:56;;;;;;;4.10;1.00;;;;;11.60;102053.00;;;;5046552;28;20195;-75
2023/03/05 00:17:23;;;;;;;4.63;1.10;;;;;11.60;102058.00;;;;5040805;28;20212;-75
2023/03/05 00:19:51;;;;;;;3.78;1.17;;;;;11.60;102046.00;;;;5047585;28;20227;-75
2023/03/05 00:22:18;;;;;;;4.05;1.20;;;;;11.60;102048.00;;;;5048046;28;20206;-75
2023/03/05 00:24:45;;;;;;;3.97;1.40;;;;;11.60;102041.00;;;;5048137;28;20295;-75
2023/03/05 00:27:13;;;;;;;4.22;1.40;;;;;11.60;102046.00;;;;5048968;28;20195;-75
2023/03/05 00:29:42;;;;;;;3.63;1.55;;;;;11.60;102032.00;;;;5045784;28;20200;-75
2023/03/05 00:32:09;;;;;;;6.18;1.40;;;;;11.60;102044.00;;;;5044670;28;20207;-75
2023/03/05 00:34:37;;;;;;;3.38;1.27;;;;;11.60;102038.00;;;;5042872;28;20200;-75
2023/03/05 00:37:04;;;;;;;6.05;1.70;;;;;11.60;102035.00;;;;5047794;28;20219;-75
2023/03/05 00:39:32;;;;;;;7.90;2.10;;;;;11.60;102033.00;;;;5048250;28;20709;-74
2023/03/05 00:41:59;;;;;;;5.70;1.23;;;;;11.60;102040.00;;;;5047194;28;20204;-75
2023/03/05 00:44:26;;;;;;;3.08;1.30;;;;;11.60;102027.00;;;;5046746;28;20204;-75
2023/03/05 00:46:55;;;;;;;5.90;1.58;;;;;11.60;102026.00;;;;5042181;28;20207;-75
2023/03/05 00:49:22;;;;;;;3.28;1.25;;;;;11.60;102029.00;;;;5043691;28;20204;-75
2023/03/05 00:51:49;;;;;;;3.03;1.35;;;;;11.60;102028.00;;;;5037799;28;20200;-75
2023/03/05 00:54:17;;;;;;;8.00;2.22;;;;;11.60;102017.00;;;;5047149;28;20196;-75
2023/03/05 00:56:45;;;;;;;5.72;1.35;;;;;11.60;102017.00;;;;5046142;28;20200;-75
2023/03/05 00:59:12;;;;;;;2.80;1.50;;;;;11.60;102019.00;;;;5044356;28;20227;-75
2023/03/05 01:01:41;;;;;;;3.22;1.05;;;;;11.50;102017.00;;;;5045580;28;20649;-75
2023/03/05 01:04:10;;;;;;;4.55;1.35;;;;;11.50;102015.00;;;;5046722;28;20666;-75
2023/03/05 01:06:41;;;;;;;3.55;1.50;;;;;11.50;102011.00;;;;5048582;28;20227;-75
2023/03/05 01:09:08;;;;;;;6.47;1.55;;;;;11.50;102018.00;;;;5051764;28;20253;-75
2023/03/05 01:11:36;;;;;;;4.35;1.23;;;;;11.50;102017.00;;;;5051280;28;20219;-75
2023/03/05 01:14:03;;;;;;;3.25;0.90;;;;;11.50;102014.00;;;;5049621;28;20208;-75
2023/03/05 01:16:30;;;;;;;4.43;1.50;;;;;11.40;102002.00;;;;5051587;28;20199;-75
2023/03/05 01:18:57;;;;;;;2.53;1.33;;;;;11.40;102003.00;;;;5051221;28;20229;-75
2023/03/05 01:21:26;;;;;;;4.60;1.40;;;;;11.40;101999.00;;;;5051333;28;20195;-75
2023/03/05 01:23:54;;;;;;;4.93;1.45;;;;;11.30;101993.00;;;;5041907;28;20612;-75
2023/03/05 01:26:22;;;;;;;1.90;1.15;;;;;11.30;101989.00;;;;5046868;28;20235;-74
2023/03/05 01:28:49;;;;;;;4.38;1.35;;;;;11.30;101988.00;;;;5050223;28;20208;-74
2023/03/05 01:31:16;;;;;;;2.80;1.10;;;;;11.30;101987.00;;;;5051643;28;20191;-75
2023/03/05 01:33:44;;;;;;;3.58;0.98;;;;;11.30;101980.00;;;;5050764;28;20890;-75
2023/03/05 01:36:14;;;;;;;5.15;1.35;;;;;11.20;101979.00;;;;5051391;28;20199;-75
2023/03/05 01:38:44;;;;;;;4.10;1.23;;;;;11.20;101977.00;;;;5051818;28;20210;-75
2023/03/05 01:41:12;;;;;;;2.13;1.20;;;;;11.20;101975.00;;;;5045655;28;20199;-75
2023/03/05 01:43:40;;;;;;;6.38;1.48;;;;;11.10;101966.00;;;;5041932;28;20211;-75
2023/03/05 01:46:27;;;;;;;5.88;1.45;;;;;11.00;101964.00;;;;5050697;28;20212;-75
2023/03/05 01:49:09;;;;;;;3.53;1.40;;;;;11.00;101962.00;;;;5051629;28;20210;-75
2023/03/05 01:51:41;;;;;;;3.53;1.52;;;;;11.00;101949.00;;;;5049384;28;20206;-75
2023/03/05 01:54:13;;;;;;;2.90;1.30;;;;;11.00;101945.00;;;;5051713;28;20724;-75
2023/03/05 01:56:43;;;;;;;6.03;1.48;;;;;11.00;101942.00;;;;5050713;28;20206;-75
2023/03/05 01:59:11;;;;;;;2.88;1.35;;;;;10.90;101936.00;;;;5040876;28;20230;-75
2023/03/05 02:01:43;;;;;;;3.83;1.05;;;;;10.90;101932.00;;;;5050049;28;20203;-75
2023/03/05 02:04:14;;;;;;;4.70;1.35;;;;;10.80;101933.00;;;;5051760;28;20200;-75
2023/03/05 02:06:43;;;;;;;2.22;0.95;;;;;10.80;101931.00;;;;5050959;28;20227;-75
2023/03/05 02:09:12;;;;;;;3.45;1.10;;;;;10.70;101927.00;;;;5051787;28;20211;-75
2023/03/05 02:11:40;;;;;;;3.13;1.25;;;;;10.70;101926.00;;;;5050679;28;20208;-75
2023/03/05 02:14:09;;;;;;;2.65;0.88;;;;;10.70;101921.00;;;;5048771;28;20199;-75
2023/03/05 02:16:38;;;;;;;2.70;1.65;;;;;10.70;101919.00;;;;5051209;28;20196;-75
2023/03/05 02:19:07;;;;;;;6.15;1.73;;;;;10.70;101911.00;;;;5050362;28;20227;-74
2023/03/05 02:21:41;;;;;;;2.90;1.23;;;;;10.60;101913.00;;;;5050644;28;20215;-75
2023/03/05 02:24:12;;;;;;;3.00;0.95;;;;;10.70;101903.00;;;;5047859;28;20564;-74
2023/03/05 02:26:41;;;;;;;5.38;0.95;;;;;10.70;101902.00;;;;5046508;28;20204;-75
2023/03/05 02:29:11;;;;;;;4.97;1.50;;;;;10.70;101901.00;;;;5051597;28;20195;-75
2023/03/05 02:31:39;;;;;;;3.10;1.70;;;;;10.70;101898.00;;;;5042902;28;20200;-75
2023/03/05 02:34:06;;;;;;;3.47;1.33;;;;;10.70;101892.00;;;;5048991;28;20203;-74
2023/03/05 02:36:34;;;;;;;3.40;1.17;;;;;10.70;101881.00;;;;5049188;28;20199;-75
2023/03/05 02:39:03;;;;;;;2.38;1.20;;;;;10.70;101892.00;;;;5051109;28;20214;-75
2023/03/05 02:41:30;;;;;;;4.10;1.27;;;;;10.80;101901.00;;;;5050792;28;20200;-74
2023/03/05 02:43:58;;;;;;;3.90;1.25;;;;;10.70;101887.00;;;;5049486;28;20690;-75
2023/03/05 02:46:25;;;;;;;5.57;1.35;;;;;10.80;101889.00;;;;5050581;28;20195;-75
2023/03/05 02:48:52;;;;;;;2.10;1.27;;;;;10.80;101887.00;;;;5047598;28;20204;-74
2023/03/05 02:51:20;;;;;;;2.95;1.33;;;;;10.80;101885.00;;;;5048487;28;20192;-75
2023/03/05 02:53:48;;;;;;;3.22;1.50;;;;;10.80;101882.00;;;;5048177;28;20207;-75
2023/03/05 02:56:17;;;;;;;3.65;1.73;;;;;10.80;101878.00;;;;5031427;28;20203;-75
2023/03/05 02:58:44;;;;;;;4.22;1.30;;;;;10.80;101874.00;;;;5049279;28;20203;-74
2023/03/05 03:01:11;;;;;;;4.07;1.60;;;;;10.80;101872.00;;;;5050349;28;20314;-75
2023/03/05 03:03:39;;;;;;;4.85;1.52;;;;;10.80;101860.00;;;;5049820;28;20202;-75
2023/03/05 03:06:07;;;;;;;2.63;1.17;;;;;10.80;101856.00;;;;5048006;28;20235;-75
2023/03/05 03:08:34;;;;;;;3.75;1.08;;;;;10.80;101854.00;;;;5049687;28;20210;-75
2023/03/05 03:11:07;;;;;;;3.30;0.95;;;;;10.80;101857.00;;;;5047432;28;20207;-74
2023/03/05 03:13:35;;;;;;;2.38;1.13;;;;;10.80;101852.00;;;;5048563;28;20204;-74
2023/03/05 03:16:04;;;;;;;3.45;1.10;;;;;10.80;101840.00;;;;5047617;28;20204;-75
2023/03/05 03:18:31;;;;;;;3.08;0.80;;;;;10.80;101838.00;;;;5049154;28;20222;-75
2023/03/05 03:20:59;;;;;;;2.80;1.05;;;;;10.80;101832.00;;;;5049134;28;20219;-75
2023/03/05 03:23:26;;;;;;;2.97;1.08;;;;;10.80;101825.00;;;;5043826;28;20219;-75
2023/03/05 03:25:53;;;;;;;5.28;1.10;;;;;10.80;101820.00;;;;5048028;28;20191;-75
2023/03/05 03:28:21;;;;;;;4.85;1.20;;;;;10.80;101818.00;;;;5048247;28;20215;-74
2023/03/05 03:30:49;;;;;;;1.65;0.95;;;;;10.80;101821.00;;;;5049052;28;20211;-75
2023/03/05 03:33:17;;;;;;;1.75;0.82;;;;;10.80;101830.00;;;;5048314;28;20204;-75
2023/03/05 03:35:45;;;;;;;7.95;1.48;;;;;10.70;101829.00;;;;5047324;28;20249;-75
2023/03/05 03:38:12;;;;;;;3.28;0.77;;;;;10.70;101815.00;;;;5043138;28;20261;-75
2023/03/05 03:40:40;;;;;;;1.13;0.50;;;;;10.70;101812.00;;;;5042944;28;20678;-75
2023/03/05 03:43:08;;;;;;;3.40;0.77;;;;;10.70;101813.00;;;;5049064;28;20238;-75
2023/03/05 03:45:35;;;;;;;2.88;0.80;;;;;10.70;101813.00;;;;5043374;28;20212;-75
2023/03/05 03:48:04;;;;;;;3.28;0.68;;;;;10.70;101806.00;;;;5036674;28;20200;-75
2023/03/05 03:50:31;;;;;;;2.60;0.70;;;;;10.70;101800.00;;;;5046787;28;20203;-75
2023/03/05 03:52:59;;;;;;;1.73;0.68;;;;;10.70;101799.00;;;;5047668;28;20208;-75
2023/03/05 03:55:26;;;;;;;5.03;0.75;;;;;10.70;101795.00;;;;5048492;28;20346;-74
2023/03/05 03:57:54;;;;;;;1.63;1.10;;;;;10.70;101789.00;;;;5045495;28;20207;-74
2023/03/05 04:00:21;;;;;;;2.13;0.98;;;;;10.70;101791.00;;;;5046691;28;20222;-75
2023/03/05 04:02:49;;;;;;;3.03;0.68;;;;;10.70;101791.00;;;;5049113;28;20198;-74
2023/03/05 04:05:17;;;;;;;2.50;0.55;;;;;10.70;101787.00;;;;5047997;28;20207;-75
2023/03/05 04:07:45;;;;;;;2.75;0.68;;;;;10.70;101782.00;;;;5048581;28;20223;-74
2023/03/05 04:10:13;;;;;;;2.25;0.57;;;;;10.70;101782.00;;;;5048517;28;20231;-74
2023/03/05 04:12:41;;;;;;;4.15;0.93;;;;;10.80;101783.00;;;;5048687;28;20203;-75
2023/03/05 04:15:10;;;;;;;1.77;0.60;;;;;10.70;101781.00;;;;5030120;28;20212;-74
2023/03/05 04:17:37;;;;;;;4.32;1.10;;;;;10.80;101777.00;;;;5036723;28;20207;-74
2023/03/05 04:20:07;;;;;;;2.63;0.98;;;;;10.80;101772.00;;;;5047214;28;20231;-74
2023/03/05 04:22:36;;;;;;;1.85;0.65;;;;;10.80;101771.00;;;;5047620;28;20269;-74
2023/03/05 04:25:05;;;;;;;3.10;0.63;;;;;10.80;101768.00;;;;5047021;28;20226;-74
2023/03/05 04:27:33;;;;;;;2.45;0.40;;;;;10.80;101769.00;;;;5048713;28;20191;-74
2023/03/05 04:30:00;;;;;;;2.25;0.93;;;;;10.80;101780.00;;;;5047294;28;20199;-74
2023/03/05 04:32:28;;;;;;;3.03;0.75;;;;;10.90;101778.00;;;;5048418;28;20195;-74
2023/03/05 04:34:56;;;;;;;3.63;0.60;;;;;10.90;101776.00;;;;5046911;28;20204;-74
2023/03/05 04:37:24;;;;;;;2.78;0.90;;;;;10.80;101769.00;;;;5028448;28;20203;-74
2023/03/05 04:39:52;;;;;;;5.68;1.23;;;;;10.80;101766.00;;;;5027921;28;20231;-74
2023/03/05 04:42:20;;;;;;;3.67;0.70;;;;;10.90;101759.00;;;;5028356;28;20577;-74
2023/03/05 04:44:48;;;;;;;2.25;0.90;;;;;10.80;101756.00;;;;5029043;28;20196;-74
2023/03/05 04:47:15;;;;;;;0.75;0.43;;;;;10.80;101757.00;;;;5038814;28;20200;-74
2023/03/05 04:49:43;;;;;;;3.78;0.70;;;;;10.80;101754.00;;;;5044997;28;20553;-74
2023/03/05 04:52:11;;;;;;;2.65;0.70;;;;;10.80;101754.00;;;;5043141;28;20200;-74
2023/03/05 04:54:38;;;;;;;3.05;0.50;;;;;10.80;101753.00;;;;5047456;28;20739;-74
2023/03/05 04:57:08;;;;;;;3.10;0.75;;;;;10.80;101750.00;;;;5048543;28;20207;-74
2023/03/05 04:59:36;;;;;;;3.25;1.10;;;;;10.80;101746.00;;;;5047740;28;20203;-74
2023/03/05 05:02:03;;;;;;;2.72;0.55;;;;;10.80;101743.00;;;;5047669;28;20934;-74
2023/03/05 05:04:31;;;;;;;1.58;0.50;;;;;10.80;101737.00;;;;5042928;28;20208;-74
2023/03/05 05:06:59;;;;;;;2.65;0.90;;;;;10.80;101738.00;;;;5041705;28;20231;-74
2023/03/05 05:09:26;;;;;;;1.67;0.40;;;;;10.80;101743.00;;;;5047111;28;20207;-74
2023/03/05 05:11:54;;;;;;;2.63;0.50;;;;;10.80;101742.00;;;;5046749;28;20195;-74
2023/03/05 05:14:23;;;;;;;1.75;0.80;;;;;10.70;101737.00;;;;5038717;28;20201;-74
2023/03/05 05:16:50;;;;;;;1.45;0.75;;;;;10.80;101727.00;;;;5043485;28;20200;-74
2023/03/05 05:19:17;;;;;;;1.50;0.50;;;;;10.70;101728.00;;;;5036972;28;20395;-74
2023/03/05 05:21:45;;;;;;;1.27;0.65;;;;;10.70;101723.00;;;;5037797;28;20231;-74
2023/03/05 05:24:12;;;;;;;3.05;0.60;;;;;10.70;101718.00;;;;5032094;28;20203;-74
2023/03/05 05:26:40;;;;;;;2.78;0.60;;;;;10.70;101715.00;;;;5047915;28;20211;-74
2023/03/05 05:29:07;;;;;;;1.40;0.65;;;;;10.70;101717.00;;;;5047855;28;20204;-74
2023/03/05 05:31:36;;;;;;;1.95;0.80;;;;;10.70;101717.00;;;;5048601;28;20207;-74
2023/03/05 05:34:03;;;;;;;1.60;0.50;;;;;10.70;101716.00;;;;5047937;28;20195;-75
2023/03/05 05:36:31;;;;;;;2.60;0.80;;;;;10.70;101714.00;;;;5048350;28;20683;-74
2023/03/05 05:38:58;;;;;;;1.17;0.70;;;;;10.70;101712.00;;;;5038904;28;20223;-74
2023/03/05 05:41:25;;;;;;;2.15;0.50;;;;;10.70;101712.00;;;;5030965;28;20223;-75
2023/03/05 05:43:53;;;;;;;1.83;0.68;;;;;10.70;101709.00;;;;5045636;28;20780;-74
2023/03/05 05:46:21;;;;;;;2.47;0.50;;;;;10.60;101701.00;;;;5038107;28;20200;-74
2023/03/05 05:48:50;;;;;;;2.03;1.10;;;;;10.60;101705.00;;;;5046950;28;20199;-74
2023/03/05 05:51:20;;;;;;;3.08;0.60;;;;;10.60;101706.00;;;;5048180;28;20211;-75
2023/03/05 05:53:48;;;;;;;2.75;0.50;;;;;10.60;101701.00;;;;5049710;28;20195;-74
2023/03/05 05:56:17;;;;;;;1.27;0.75;;;;;10.60;101693.00;;;;5042081;28;20195;-74
2023/03/05 05:58:46;;;;;;;2.85;0.98;;;;;10.60;101693.00;;;;5050905;28;20576;-74
2023/03/05 06:01:15;;;;;;;2.92;0.60;;;;;10.60;101695.00;;;;5043344;28;20223;-74
2023/03/05 06:03:43;;;;;;;2.17;1.25;;;;;10.60;101693.00;;;;5051447;28;20580;-74
2023/03/05 06:06:13;;;;;;;1.45;0.60;;;;;10.50;101692.00;;;;5050896;28;20593;-74
2023/03/05 06:08:41;;;;;;;1.10;0.55;;;;;10.60;101687.00;;;;5043638;28;20565;-74
2023/03/05 06:11:08;;;;;;;1.98;0.68;;;;;10.60;101693.00;;;;5048746;28;20211;-74
2023/03/05 06:13:36;;;;;;;2.70;0.70;;;;;10.60;101691.00;;;;5048953;28;20318;-74
2023/03/05 06:16:06;;;;;;;3.83;1.02;;;;;10.60;101690.00;;;;5048314;28;20203;-75
2023/03/05 06:18:34;;;;;;;1.73;0.90;;;;;10.60;101687.00;;;;5050575;28;20207;-74
2023/03/05 06:21:05;;;;;;;2.67;0.93;;;;;10.60;101690.00;;;;5046685;28;20728;-75
2023/03/05 06:23:34;;;;;;;2.05;0.75;;;;;10.50;101687.00;;;;5048067;28;20207;-75
2023/03/05 06:26:02;;;;;;;4.00;1.20;;;;;10.60;101688.00;;;;5037119;28;20693;-75
2023/03/05 06:28:30;;;;;;;0.82;0.52;;;;;10.60;101682.00;;;;5050141;28;20196;-75
2023/03/05 06:31:01;;;;;;;1.52;0.80;;;;;10.50;101682.00;;;;5049437;28;20200;-75
2023/03/05 06:33:29;;;;;;;2.03;0.80;;;;;10.60;101684.00;;;;5049777;28;20596;-74
2023/03/05 06:35:56;;;;;;;1.90;0.80;;;;;10.60;101692.00;;;;5049236;28;20214;-74
2023/03/05 06:38:25;;;;;;;2.25;1.00;;;;;10.60;101683.00;;;;5049620;28;20290;-75
2023/03/05 06:40:53;;;;;;;2.92;0.70;;;;;10.60;101686.00;;;;5050144;28;20600;-74
2023/03/05 06:43:21;;;;;;;1.42;0.80;;;;;10.60;101685.00;;;;5049245;28;20207;-74
2023/03/05 06:45:49;;;;;;;1.95;0.80;;;;;10.60;101689.00;;;;5049381;28;20204;-75
2023/03/05 06:48:16;;;;;;;1.70;0.63;;;;;10.60;101692.00;;;;5030295;28;20196;-75
2023/03/05 06:50:43;;;;;;;2.53;0.43;;;;;10.60;101680.00;;;;5048356;28;20653;-75
2023/03/05 06:53:10;;;;;;;1.00;0.50;;;;;10.60;101687.00;;;;5047041;28;20195;-75
2023/03/05 06:55:39;;;;;;;1.33;0.63;;;;;10.60;101688.00;;;;5045456;28;20207;-75
2023/03/05 06:58:08;;;;;;;3.15;1.00;;;;;10.50;101691.00;;;;5045320;28;20203;-75
2023/03/05 07:00:36;;;;;;;1.67;0.80;;;;;10.60;101690.00;;;;5043293;28;20227;-75
2023/03/05 07:03:03;;;;;;;3.67;0.80;;;;;10.60;101692.00;;;;5037181;28;20197;-75
2023/03/05 07:05:31;;;;;;;1.20;0.75;;;;;10.60;101689.00;;;;5040930;28;20196;-75
2023/03/05 07:07:59;;;;;;;2.10;1.00;;;;;10.60;101687.00;;;;5040721;28;20216;-74
2023/03/05 07:10:26;;;;;;;1.88;0.88;;;;;10.60;101690.00;;;;5045190;28;20210;-75
2023/03/05 07:13:01;;;;;;;1.73;0.57;;;;;10.60;101687.00;;;;5030585;28;20577;-75
2023/03/05 07:15:45;;;;;;;1.65;0.70;;;;;10.60;101688.00;;;;5043491;28;20287;-77
2023/03/05 07:18:33;;;;;;;1.27;0.43;;;;;10.60;101686.00;;;;5036454;28;20228;-74
2023/03/05 07:21:16;;;;;;;1.48;0.68;;;;;10.70;101683.00;;;;5040266;28;20227;-73
2023/03/05 07:24:05;;;;;;;1.73;0.85;;;;;10.70;101673.00;;;;5033000;28;20262;-74
2023/03/05 07:26:43;;;;;;;2.22;0.90;;;;;10.80;101679.00;;;;5047646;28;20199;-74
2023/03/05 07:29:48;;;;;;;1.35;0.50;;;;;10.70;101670.00;;;;5043735;28;20235;-75
2023/03/05 07:32:33;;;;;;;1.30;0.77;;;;;10.80;101680.00;;;;5038391;28;20254;-74
2023/03/05 07:38:05;;;;;;;0.85;0.40;;;;;10.90;101675.00;;;;5022838;28;20274;-74
2023/03/05 07:40:45;;;;;;;2.08;0.40;;;;;10.90;101674.00;;;;5045479;28;20219;-74
2023/03/05 07:46:30;;;;;;;3.08;0.77;;;;;11.10;101679.00;;;;5036147;28;20199;-74
2023/03/05 07:49:13;;;;;;;0.47;0.40;;;;;11.00;101670.00;;;;5043923;28;20654;-74
2023/03/05 07:51:50;;;;;;;1.27;0.47;;;;;11.10;101676.00;;;;5047022;28;20218;-75
2023/03/05 07:54:21;;;;;;;0.80;0.40;;;;;11.20;101682.00;;;;5046922;28;20219;-75
2023/03/05 07:56:48;;;;;;;1.83;0.70;;;;;11.20;101670.00;;;;5037021;28;20658;-74
2023/03/05 07:59:16;;;;;;;2.15;0.60;;;;;11.30;101668.00;;;;5034261;28;20196;-75
2023/03/05 08:01:45;;;;;;;1.48;0.50;;;;;11.30;101672.00;;;;5035181;28;20612;-76
2023/03/05 08:04:13;;;;;;;2.88;0.50;;;;;11.30;101669.00;;;;5034054;28;20279;-75
2023/03/05 08:06:45;;;;;;;2.13;0.50;;;;;11.30;101663.00;;;;5035027;28;20223;-76
2023/03/05 08:09:13;;;;;;;3.28;0.60;;;;;11.40;101668.00;;;;5032093;28;20873;-74
2023/03/05 08:11:40;;;;;;;1.13;0.40;;;;;11.40;101666.00;;;;5034262;28;20195;-75
2023/03/05 08:14:08;;;;;;;3.78;0.75;;;;;11.40;101663.00;;;;5030545;28;20199;-74
2023/03/05 08:16:35;;;;;;;2.15;0.60;;;;;11.50;101665.00;;;;5033726;28;20199;-74
2023/03/05 08:19:03;;;;;;;0.70;0.50;;;;;11.50;101657.00;;;;5031639;28;20229;-73
2023/03/05 08:21:34;;;;;;;1.75;0.50;;;;;11.50;101661.00;;;;5034217;28;20238;-73
2023/03/05 08:24:03;;;;;;;1.42;0.60;;;;;11.60;101655.00;;;;5036005;28;20605;-73
2023/03/05 08:26:32;;;;;;;1.38;0.57;;;;;11.60;101652.00;;;;5034644;28;20235;-74
2023/03/05 08:29:00;;;;;;;1.20;0.60;;;;;11.60;101655.00;;;;5031017;28;20207;-74
2023/03/05 08:31:28;;;;;;;0.40;0.32;;;;;11.60;101646.00;;;;5031432;28;20195;-73
2023/03/05 08:34:00;;;;;;;1.38;0.50;;;;;11.70;101642.00;;;;5035620;28;20234;-73
2023/03/05 08:36:35;;;;;;;1.67;0.82;;;;;11.70;101646.00;;;;5037828;28;20207;-73
2023/03/05 08:39:05;;;;;;;2.83;0.43;;;;;11.80;101642.00;;;;5032576;28;20330;-74
2023/03/05 08:41:33;;;;;;;1.60;0.60;;;;;11.90;101641.00;;;;5038056;28;20596;-73
2023/03/05 08:44:04;;;;;;;1.50;0.40;;;;;12.00;101636.00;;;;5035738;28;20682;-74
2023/03/05 08:46:32;;;;;;;1.15;0.43;;;;;12.00;101633.00;;;;5032878;28;20202;-73
2023/03/05 08:48:59;;;;;;;1.17;0.40;;;;;12.10;101633.00;;;;5038047;28;20207;-73
2023/03/05 08:51:36;;;;;;;1.45;0.40;;;;;12.10;101633.00;;;;5038490;28;20726;-75
2023/03/05 08:59:52;;;;;;;1.55;0.32;;;;;12.30;101621.00;;;;5042487;28;20202;-74
2023/03/05 09:02:19;;;;;;;1.38;0.50;;;;;12.40;101628.00;;;;5046510;28;20308;-74
2023/03/05 09:04:48;;;;;;;2.33;0.40;;;;;12.40;101617.00;;;;5045784;28;20278;-74
2023/03/05 09:07:27;;;;;;;1.55;0.45;;;;;12.40;101616.00;;;;5043059;28;20259;-73
2023/03/05 09:09:57;;;;;;;0.90;0.40;;;;;12.60;101623.00;;;;5040215;28;20203;-74
2023/03/05 09:12:25;;;;;;;0.38;0.20;;;;;12.60;101617.00;;;;5053826;28;20203;-73
2023/03/05 09:15:00;;;;;;;1.25;0.40;;;;;12.60;101616.00;;;;5047816;28;20738;-74
2023/03/05 09:17:38;;;;;;;0.65;0.47;;;;;12.70;101620.00;;;;5042245;28;20210;-74
2023/03/05 09:20:14;;;;;;;0.63;0.43;;;;;12.80;101612.00;;;;5035259;28;20801;-74
2023/03/05 09:22:47;;;;;;;0.77;0.40;;;;;12.90;101608.00;;;;5040574;28;20288;-74
2023/03/05 09:25:19;;;;;;;2.75;0.50;;;;;12.90;101608.00;;;;5041638;28;20210;-74
2023/03/05 09:27:47;;;;;;;0.95;0.47;;;;;12.90;101604.00;;;;5041887;28;20629;-73
2023/03/05 09:30:18;;;;;;;1.40;0.65;;;;;13.00;101606.00;;;;5047577;28;20196;-74
2023/03/05 09:33:04;;;;;;;1.85;0.43;;;;;12.90;101602.00;;;;5048498;28;20223;-74
2023/03/05 09:35:35;;;;;;;0.50;0.43;;;;;13.00;101597.00;;;;5044011;28;20192;-74
2023/03/05 09:38:06;;;;;;;1.13;0.60;;;;;13.10;101598.00;;;;5046440;28;20208;-73
2023/03/05 09:40:46;;;;;;;0.73;0.40;;;;;13.10;101602.00;;;;5051711;28;20204;-74
2023/03/05 09:43:25;;;;;;;0.80;0.35;;;;;13.10;101603.00;;;;5046730;28;20238;-74
2023/03/05 09:46:10;;;;;;;0.65;0.50;;;;;13.10;101608.00;;;;5043014;28;20203;-74
2023/03/05 09:48:49;;;;;;;0.60;0.47;;;;;13.20;101601.00;;;;5042186;28;20207;-75
2023/03/05 09:51:22;;;;;;;0.50;0.30;;;;;13.20;101603.00;;;;5043460;28;20194;-74
2023/03/05 09:53:56;;;;;;;0.80;0.40;;;;;13.20;101600.00;;;;5045918;28;20187;-75
2023/03/05 09:56:29;;;;;;;2.70;0.75;;;;;13.10;101600.00;;;;5043556;28;20677;-75
2023/03/05 09:58:59;;;;;;;0.52;0.43;;;;;13.20;101595.00;;;;5042458;28;20195;-75
2023/03/05 10:01:34;;;;;;;2.30;0.68;;;;;13.20;101587.00;;;;5039468;28;20222;-74
2023/03/05 10:04:09;;;;;;;0.70;0.50;;;;;13.20;101591.00;;;;5039980;28;20261;-74
2023/03/05 10:06:44;;;;;;;0.75;0.65;;;;;13.30;101597.00;;;;5045109;28;20231;-74
2023/03/05 10:09:19;;;;;;;1.95;0.82;;;;;13.30;101590.00;;;;5047180;28;20675;-75
2023/03/05 10:11:54;;;;;;;2.67;0.68;;;;;13.30;101586.00;;;;5050045;28;20734;-75
2023/03/05 10:14:27;;;;;;;1.35;0.80;;;;;13.40;101576.00;;;;5049197;28;20205;-75
2023/03/05 10:17:15;;;;;;;1.55;0.65;;;;;13.40;101582.00;;;;5042894;28;20192;-74
2023/03/05 10:20:03;;;;;;;2.28;1.00;;;;;13.40;101583.00;;;;5044537;28;20219;-74
2023/03/05 10:22:33;;;;;;;0.70;0.63;;;;;13.50;101583.00;;;;5046865;28;20238;-75
2023/03/05 10:25:18;;;;;;;2.20;0.40;;;;;13.40;101582.00;;;;5045517;28;20200;-74
2023/03/05 10:27:50;;;;;;;3.55;1.10;;;;;13.40;101568.00;;;;5039312;28;20266;-75
2023/03/05 10:30:34;;;;;;;2.63;0.85;;;;;13.40;101566.00;;;;5032853;28;20207;-74
2023/03/05 10:33:12;;;;;;;1.30;0.80;;;;;13.50;101563.00;;;;5050722;28;20584;-74
2023/03/05 10:36:01;;;;;;;1.65;0.75;;;;;13.50;101559.00;;;;5043568;28;20203;-74
2023/03/05 10:39:01;;;;;;;2.58;0.50;;;;;13.50;101559.00;;;;5050658;28;20278;-74
2023/03/05 10:41:37;;;;;;;1.45;0.43;;;;;13.50;101558.00;;;;4999151;28;20195;-75
2023/03/05 10:44:14;;;;;;;0.90;0.47;;;;;13.60;101554.00;;;;5049009;28;20203;-74
2023/03/05 10:46:42;;;;;;;2.03;0.25;;;;;13.70;101548.00;;;;5034356;28;20207;-74
2023/03/05 10:49:18;;;;;;;1.05;0.28;;;;;13.60;101546.00;;;;5032858;28;20207;-75
2023/03/05 10:51:51;;;;;;;1.55;0.20;;;;;13.60;101544.00;;;;5050483;28;20195;-74
2023/03/05 10:54:25;;;;;;;0.20;0.17;;;;;13.70;101537.00;;;;5050707;28;20253;-74
2023/03/05 10:57:03;;;;;;;1.55;0.30;;;;;13.70;101533.00;;;;5050101;28;20199;-74
2023/03/05 10:59:32;;;;;;;1.27;0.40;;;;;13.70;101528.00;;;;5030043;28;20207;-74
2023/03/05 11:02:04;;;;;;;2.03;0.32;;;;;13.70;101530.00;;;;5031143;28;20243;-74
2023/03/05 11:04:35;;;;;;;3.00;0.30;;;;;13.70;101525.00;;;;5042993;28;20211;-74
2023/03/05 11:07:27;;;;;;;2.63;0.30;;;;;13.70;101521.00;;;;5049895;28;20784;-74
2023/03/05 11:10:16;;;;;;;1.13;0.30;;;;;13.80;101517.00;;;;5042175;28;20207;-74
2023/03/05 11:12:44;;;;;;;1.23;0.38;;;;;13.90;101520.00;;;;5030401;28;20199;-75
2023/03/05 11:15:26;;;;;;;1.20;0.32;;;;;13.80;101516.00;;;;5035715;28;20196;-74
2023/03/05 11:18:23;;;;;;;0.70;0.35;;;;;13.80;101518.00;;;;5048381;28;20210;-75
2023/03/05 11:20:52;;;;;;;0.98;0.47;;;;;13.90;101511.00;;;;5001549;28;20200;-75
2023/03/05 11:23:22;;;;;;;0.85;0.28;;;;;13.90;101500.00;;;;5048248;28;20226;-75
2023/03/05 11:26:01;;;;;;;0.63;0.20;;;;;13.80;101500.00;;;;5049491;28;20601;-75
2023/03/05 11:28:32;;;;;;;1.52;0.35;;;;;13.90;101492.00;;;;5046511;28;20200;-75
2023/03/05 11:31:06;;;;;;;2.88;0.60;;;;;14.00;101496.00;;;;5046977;28;20265;-76
2023/03/05 11:33:34;;;;;;;3.08;0.40;;;;;14.00;101487.00;;;;5048405;28;20663;-76
2023/03/05 11:36:23;;;;;;;1.42;0.20;;;;;14.00;101483.00;;;;5042849;28;20585;-75
2023/03/05 11:38:54;;;;;;;0.65;0.47;;;;;14.10;101484.00;;;;5046130;28;20631;-75
2023/03/05 11:41:29;;;;;;;1.52;0.52;;;;;14.20;101478.00;;;;5041399;28;20720;-75
2023/03/05 11:43:58;;;;;;;1.52;0.45;;;;;14.30;101474.00;;;;5040141;28;20227;-77
2023/03/05 11:46:28;;;;;;;0.30;0.20;;;;;14.30;101482.00;;;;5042099;28;20697;-76
2023/03/05 11:48:58;;;;;;;0.70;0.20;;;;;14.40;101475.00;;;;5041093;28;20227;-75
2023/03/05 11:51:31;;;;;;;1.27;0.32;;;;;14.40;101471.00;;;;5044040;28;20207;-76
2023/03/05 11:54:06;;;;;;;0.98;0.20;;;;;14.40;101467.00;;;;5045668;28;20216;-75
2023/03/05 11:56:36;;;;;;;1.08;0.20;;;;;14.40;101462.00;;;;5042896;28;20665;-75
2023/03/05 11:59:11;;;;;;;2.25;0.22;;;;;14.50;101456.00;;;;5043277;28;20207;-75
2023/03/05 12:01:45;;;;;;;2.47;0.30;;;;;14.50;101448.00;;;;5042878;28;20213;-75
2023/03/05 12:04:12;;;;;;;1.08;0.17;;;;;14.60;101451.00;;;;5039956;28;20678;-75
2023/03/05 12:06:44;;;;;;;2.85;0.40;;;;;14.70;101443.00;;;;5042843;28;20223;-75
2023/03/05 12:09:19;;;;;;;1.75;0.47;;;;;14.70;101441.00;;;;5037121;28;20207;-75
2023/03/05 12:11:50;;;;;;;0.38;0.20;;;;;14.80;101436.00;;;;5034088;28;20667;-76
2023/03/05 12:14:23;;;;;;;1.30;0.32;;;;;14.80;101424.00;;;;5043814;28;20201;-76
2023/03/05 12:16:55;;;;;;;0.75;0.20;;;;;14.90;101422.00;;;;5040978;28;20196;-76
2023/03/05 12:19:40;;;;;;;0.88;0.43;;;;;14.90;101420.00;;;;5044441;28;20207;-76
2023/03/05 12:22:18;;;;;;;3.13;0.40;;;;;15.00;101413.00;;;;5034341;28;20200;-76
2023/03/05 12:24:46;;;;;;;1.77;0.13;;;;;15.20;101409.00;;;;5043719;28;20209;-76
2023/03/05 12:27:31;;;;;;;1.55;0.20;;;;;15.20;101409.00;;;;5035286;28;20215;-76
2023/03/05 12:30:00;;;;;;;2.25;0.45;;;;;15.30;101405.00;;;;5040638;28;20208;-76
2023/03/05 12:33:02;;;;;;;0.70;0.30;;;;;15.20;101402.00;;;;5046590;28;20228;-76
2023/03/05 12:35:36;;;;;;;1.80;0.50;;;;;15.30;101403.00;;;;5040636;28;20638;-76
2023/03/05 12:38:27;;;;;;;3.80;0.52;;;;;15.30;101391.00;;;;5036546;28;20512;-76